sensor_id;sensor_type;location;lat;lon;timestamp;P1;durP1;ratioP1;P2;durP2;ratioP2
24173;SDS011;12324;48.146;11.502;2023-03-31T00:02:03;14.73;;;6.80;;
24173;SDS011;12324;48.146;11.502;2023-03-31T00:04:39;17.10;;;6.90;;
24173;SDS011;12324;48.146;11.502;2023-03-31T00:07:12;16.73;;;6.38;;
24173;SDS011;12324;48.146;11.502;2023-03-31T00:09:39;20.17;;;6.28;;
24173;SDS011;12324;48.146;11.502;2023-03-31T00:12:12;12.65;;;6.28;;
24173;SDS011;12324;48.146;11.502;2023-03-31T00:14:39;18.23;;;6.55;;
24173;SDS011;12324;48.146;11.502;2023-03-31T00:17:06;18.23;;;6.00;;
24173;SDS011;12324;48.146;11.502;2023-03-31T00:19:33;14.52;;;6.05;;
24173;SDS011;12324;48.146;11.502;2023-03-31T00:22:00;14.93;;;7.00;;
24173;SDS011;12324;48.146;11.502;2023-03-31T00:24:28;15.43;;;6.20;;
24173;SDS011;12324;48.146;11.502;2023-03-31T00:26:58;14.45;;;6.30;;
24173;SDS011;12324;48.146;11.502;2023-03-31T00:29:26;14.10;;;6.50;;
24173;SDS011;12324;48.146;11.502;2023-03-31T00:31:53;19.08;;;6.93;;
24173;SDS011;12324;48.146;11.502;2023-03-31T00:34:21;16.48;;;6.45;;
24173;SDS011;12324;48.146;11.502;2023-03-31T00:36:48;15.93;;;6.43;;
24173;SDS011;12324;48.146;11.502;2023-03-31T00:39:16;14.80;;;6.38;;
24173;SDS011;12324;48.146;11.502;2023-03-31T00:41:44;16.35;;;5.65;;
24173;SDS011;12324;48.146;11.502;2023-03-31T00:49:22;16.23;;;5.82;;
24173;SDS011;12324;48.146;11.502;2023-03-31T00:51:50;14.85;;;5.80;;
24173;SDS011;12324;48.146;11.502;2023-03-31T00:54:19;17.80;;;5.97;;
24173;SDS011;12324;48.146;11.502;2023-03-31T00:56:48;17.60;;;7.40;;
24173;SDS011;12324;48.146;11.502;2023-03-31T00:59:18;12.07;;;6.18;;
24173;SDS011;12324;48.146;11.502;2023-03-31T01:01:45;14.00;;;5.70;;
24173;SDS011;12324;48.146;11.502;2023-03-31T01:04:15;17.00;;;6.05;;
24173;SDS011;12324;48.146;11.502;2023-03-31T01:06:51;14.82;;;6.25;;
24173;SDS011;12324;48.146;11.502;2023-03-31T01:09:23;15.63;;;6.28;;
24173;SDS011;12324;48.146;11.502;2023-03-31T01:11:50;17.60;;;6.47;;
24173;SDS011;12324;48.146;11.502;2023-03-31T01:14:17;16.85;;;6.45;;
24173;SDS011;12324;48.146;11.502;2023-03-31T01:16:44;13.88;;;5.65;;
24173;SDS011;12324;48.146;11.502;2023-03-31T01:19:15;14.90;;;6.40;;
24173;SDS011;12324;48.146;11.502;2023-03-31T01:22:03;19.05;;;6.28;;
24173;SDS011;12324;48.146;11.502;2023-03-31T01:35:13;13.45;;;6.10;;
24173;SDS011;12324;48.146;11.502;2023-03-31T01:37:58;16.55;;;6.38;;
24173;SDS011;12324;48.146;11.502;2023-03-31T01:43:15;13.30;;;5.88;;
24173;SDS011;12324;48.146;11.502;2023-03-31T01:48:20;16.23;;;6.73;;
24173;SDS011;12324;48.146;11.502;2023-03-31T01:50:56;15.82;;;6.47;;
24173;SDS011;12324;48.146;11.502;2023-03-31T01:56:04;15.82;;;6.15;;
24173;SDS011;12324;48.146;11.502;2023-03-31T01:58:38;16.55;;;5.80;;
24173;SDS011;12324;48.146;11.502;2023-03-31T02:01:29;17.00;;;6.80;;
24173;SDS011;12324;48.146;11.502;2023-03-31T02:03:57;17.80;;;6.03;;
24173;SDS011;12324;48.146;11.502;2023-03-31T02:06:26;17.52;;;7.10;;
24173;SDS011;12324;48.146;11.502;2023-03-31T02:09:00;16.45;;;6.55;;
24173;SDS011;12324;48.146;11.502;2023-03-31T02:11:29;12.23;;;6.00;;
24173;SDS011;12324;48.146;11.502;2023-03-31T02:13:57;20.70;;;5.80;;
24173;SDS011;12324;48.146;11.502;2023-03-31T02:16:29;16.02;;;6.55;;
24173;SDS011;12324;48.146;11.502;2023-03-31T02:18:58;24.38;;;7.55;;
24173;SDS011;12324;48.146;11.502;2023-03-31T02:21:29;13.70;;;6.35;;
24173;SDS011;12324;48.146;11.502;2023-03-31T02:23:58;14.90;;;6.05;;
24173;SDS011;12324;48.146;11.502;2023-03-31T02:26:28;20.17;;;6.70;;
24173;SDS011;12324;48.146;11.502;2023-03-31T02:28:57;12.52;;;5.35;;
24173;SDS011;12324;48.146;11.502;2023-03-31T02:34:06;13.23;;;6.38;;
24173;SDS011;12324;48.146;11.502;2023-03-31T02:36:35;17.08;;;7.15;;
24173;SDS011;12324;48.146;11.502;2023-03-31T02:39:04;15.18;;;5.88;;
24173;SDS011;12324;48.146;11.502;2023-03-31T02:41:32;16.00;;;5.38;;
24173;SDS011;12324;48.146;11.502;2023-03-31T02:43:59;12.25;;;6.40;;
24173;SDS011;12324;48.146;11.502;2023-03-31T02:46:27;14.73;;;5.63;;
24173;SDS011;12324;48.146;11.502;2023-03-31T02:48:55;13.63;;;5.85;;
24173;SDS011;12324;48.146;11.502;2023-03-31T02:51:36;14.48;;;6.55;;
24173;SDS011;12324;48.146;11.502;2023-03-31T03:07:19;15.52;;;5.95;;
24173;SDS011;12324;48.146;11.502;2023-03-31T03:17:27;13.27;;;5.63;;
24173;SDS011;12324;48.146;11.502;2023-03-31T03:19:57;16.52;;;5.88;;
24173;SDS011;12324;48.146;11.502;2023-03-31T03:22:25;15.60;;;5.65;;
24173;SDS011;12324;48.146;11.502;2023-03-31T03:24:53;16.83;;;6.38;;
24173;SDS011;12324;48.146;11.502;2023-03-31T03:27:21;15.63;;;6.32;;
24173;SDS011;12324;48.146;11.502;2023-03-31T03:29:48;17.38;;;6.30;;
24173;SDS011;12324;48.146;11.502;2023-03-31T03:32:15;16.90;;;6.72;;
24173;SDS011;12324;48.146;11.502;2023-03-31T03:34:42;16.77;;;6.90;;
24173;SDS011;12324;48.146;11.502;2023-03-31T03:37:09;16.77;;;6.68;;
24173;SDS011;12324;48.146;11.502;2023-03-31T03:39:36;19.08;;;7.78;;
24173;SDS011;12324;48.146;11.502;2023-03-31T03:42:03;14.82;;;6.65;;
24173;SDS011;12324;48.146;11.502;2023-03-31T03:44:30;15.88;;;7.57;;
24173;SDS011;12324;48.146;11.502;2023-03-31T03:46:57;15.20;;;7.22;;
24173;SDS011;12324;48.146;11.502;2023-03-31T03:49:25;15.38;;;6.82;;
24173;SDS011;12324;48.146;11.502;2023-03-31T03:51:52;22.20;;;8.40;;
24173;SDS011;12324;48.146;11.502;2023-03-31T03:54:19;21.75;;;7.63;;
24173;SDS011;12324;48.146;11.502;2023-03-31T03:56:46;17.17;;;6.78;;
24173;SDS011;12324;48.146;11.502;2023-03-31T03:59:13;19.33;;;7.40;;
24173;SDS011;12324;48.146;11.502;2023-03-31T04:01:40;19.40;;;8.23;;
24173;SDS011;12324;48.146;11.502;2023-03-31T04:04:07;20.08;;;7.88;;
24173;SDS011;12324;48.146;11.502;2023-03-31T04:06:34;19.73;;;8.25;;
24173;SDS011;12324;48.146;11.502;2023-03-31T04:09:01;22.45;;;8.55;;
24173;SDS011;12324;48.146;11.502;2023-03-31T04:11:29;18.90;;;8.27;;
24173;SDS011;12324;48.146;11.502;2023-03-31T04:13:56;22.10;;;8.82;;
24173;SDS011;12324;48.146;11.502;2023-03-31T04:16:23;19.33;;;8.57;;
24173;SDS011;12324;48.146;11.502;2023-03-31T04:18:51;17.00;;;8.50;;
24173;SDS011;12324;48.146;11.502;2023-03-31T04:21:22;22.02;;;8.63;;
24173;SDS011;12324;48.146;11.502;2023-03-31T04:23:53;17.75;;;8.30;;
24173;SDS011;12324;48.146;11.502;2023-03-31T04:26:31;19.70;;;9.00;;
24173;SDS011;12324;48.146;11.502;2023-03-31T04:29:11;21.15;;;8.68;;
24173;SDS011;12324;48.146;11.502;2023-03-31T04:31:39;16.20;;;8.40;;
24173;SDS011;12324;48.146;11.502;2023-03-31T04:34:13;21.63;;;9.10;;
24173;SDS011;12324;48.146;11.502;2023-03-31T04:36:44;18.90;;;8.65;;
24173;SDS011;12324;48.146;11.502;2023-03-31T04:39:14;19.20;;;9.02;;
24173;SDS011;12324;48.146;11.502;2023-03-31T04:41:41;18.75;;;8.90;;
24173;SDS011;12324;48.146;11.502;2023-03-31T04:44:08;19.10;;;10.05;;
24173;SDS011;12324;48.146;11.502;2023-03-31T04:46:35;21.30;;;10.02;;
24173;SDS011;12324;48.146;11.502;2023-03-31T04:49:02;18.15;;;9.98;;
24173;SDS011;12324;48.146;11.502;2023-03-31T04:51:30;20.15;;;9.70;;
24173;SDS011;12324;48.146;11.502;2023-03-31T04:53:58;19.45;;;9.63;;
24173;SDS011;12324;48.146;11.502;2023-03-31T04:56:25;24.75;;;10.38;;
24173;SDS011;12324;48.146;11.502;2023-03-31T04:58:52;20.83;;;9.43;;
24173;SDS011;12324;48.146;11.502;2023-03-31T05:01:19;23.90;;;11.55;;
24173;SDS011;12324;48.146;11.502;2023-03-31T05:03:46;19.55;;;10.23;;
24173;SDS011;12324;48.146;11.502;2023-03-31T05:06:14;20.45;;;11.05;;
24173;SDS011;12324;48.146;11.502;2023-03-31T05:08:41;23.52;;;10.82;;
24173;SDS011;12324;48.146;11.502;2023-03-31T05:11:09;22.67;;;10.82;;
24173;SDS011;12324;48.146;11.502;2023-03-31T05:13:36;21.35;;;10.52;;
24173;SDS011;12324;48.146;11.502;2023-03-31T05:16:10;25.33;;;11.52;;
24173;SDS011;12324;48.146;11.502;2023-03-31T05:18:39;28.08;;;11.35;;
24173;SDS011;12324;48.146;11.502;2023-03-31T05:21:10;21.33;;;12.25;;
24173;SDS011;12324;48.146;11.502;2023-03-31T05:23:38;19.92;;;11.13;;
24173;SDS011;12324;48.146;11.502;2023-03-31T05:26:05;22.38;;;11.02;;
24173;SDS011;12324;48.146;11.502;2023-03-31T05:28:34;28.50;;;11.25;;
24173;SDS011;12324;48.146;11.502;2023-03-31T05:31:01;27.75;;;11.60;;
24173;SDS011;12324;48.146;11.502;2023-03-31T05:33:29;21.83;;;11.40;;
24173;SDS011;12324;48.146;11.502;2023-03-31T05:35:56;21.17;;;10.25;;
24173;SDS011;12324;48.146;11.502;2023-03-31T05:38:25;18.25;;;10.05;;
24173;SDS011;12324;48.146;11.502;2023-03-31T05:40:56;22.15;;;9.82;;
24173;SDS011;12324;48.146;11.502;2023-03-31T05:43:23;19.02;;;9.52;;
24173;SDS011;12324;48.146;11.502;2023-03-31T05:45:51;17.75;;;9.57;;
24173;SDS011;12324;48.146;11.502;2023-03-31T05:48:18;20.20;;;11.02;;
24173;SDS011;12324;48.146;11.502;2023-03-31T05:50:46;18.75;;;10.63;;
24173;SDS011;12324;48.146;11.502;2023-03-31T05:53:13;22.48;;;9.25;;
24173;SDS011;12324;48.146;11.502;2023-03-31T05:55:40;17.83;;;10.15;;
24173;SDS011;12324;48.146;11.502;2023-03-31T05:58:07;20.17;;;10.32;;
24173;SDS011;12324;48.146;11.502;2023-03-31T06:00:34;18.90;;;10.15;;
24173;SDS011;12324;48.146;11.502;2023-03-31T06:03:02;20.38;;;10.73;;
24173;SDS011;12324;48.146;11.502;2023-03-31T06:05:33;26.52;;;10.75;;
24173;SDS011;12324;48.146;11.502;2023-03-31T06:08:01;20.83;;;10.18;;
24173;SDS011;12324;48.146;11.502;2023-03-31T06:10:28;17.02;;;9.55;;
24173;SDS011;12324;48.146;11.502;2023-03-31T06:12:55;20.02;;;10.05;;
24173;SDS011;12324;48.146;11.502;2023-03-31T06:15:22;20.95;;;10.15;;
24173;SDS011;12324;48.146;11.502;2023-03-31T06:17:50;23.15;;;9.70;;
24173;SDS011;12324;48.146;11.502;2023-03-31T06:20:17;22.20;;;11.00;;
24173;SDS011;12324;48.146;11.502;2023-03-31T06:22:53;22.67;;;10.00;;
24173;SDS011;12324;48.146;11.502;2023-03-31T06:25:21;20.98;;;9.63;;
24173;SDS011;12324;48.146;11.502;2023-03-31T06:27:48;20.60;;;8.63;;
24173;SDS011;12324;48.146;11.502;2023-03-31T06:30:15;18.63;;;10.15;;
24173;SDS011;12324;48.146;11.502;2023-03-31T06:32:42;20.13;;;10.02;;
24173;SDS011;12324;48.146;11.502;2023-03-31T06:35:09;20.77;;;9.40;;
24173;SDS011;12324;48.146;11.502;2023-03-31T06:37:36;16.15;;;8.82;;
24173;SDS011;12324;48.146;11.502;2023-03-31T06:40:03;24.65;;;9.60;;
24173;SDS011;12324;48.146;11.502;2023-03-31T06:42:30;16.45;;;8.35;;
24173;SDS011;12324;48.146;11.502;2023-03-31T06:44:58;17.83;;;8.82;;
24173;SDS011;12324;48.146;11.502;2023-03-31T06:47:26;22.10;;;9.80;;
24173;SDS011;12324;48.146;11.502;2023-03-31T06:49:53;18.17;;;8.85;;
24173;SDS011;12324;48.146;11.502;2023-03-31T06:52:20;18.67;;;8.48;;
24173;SDS011;12324;48.146;11.502;2023-03-31T06:54:47;18.65;;;8.45;;
24173;SDS011;12324;48.146;11.502;2023-03-31T06:57:14;16.92;;;8.90;;
24173;SDS011;12324;48.146;11.502;2023-03-31T06:59:41;20.52;;;8.95;;
24173;SDS011;12324;48.146;11.502;2023-03-31T07:02:08;18.00;;;8.48;;
24173;SDS011;12324;48.146;11.502;2023-03-31T07:04:36;18.02;;;7.60;;
24173;SDS011;12324;48.146;11.502;2023-03-31T07:07:02;17.88;;;9.02;;
24173;SDS011;12324;48.146;11.502;2023-03-31T07:09:29;17.02;;;7.78;;
24173;SDS011;12324;48.146;11.502;2023-03-31T07:11:56;19.50;;;9.10;;
24173;SDS011;12324;48.146;11.502;2023-03-31T07:14:22;16.70;;;8.23;;
24173;SDS011;12324;48.146;11.502;2023-03-31T07:16:49;17.15;;;8.90;;
24173;SDS011;12324;48.146;11.502;2023-03-31T07:19:16;19.13;;;9.95;;
24173;SDS011;12324;48.146;11.502;2023-03-31T07:21:44;18.60;;;8.90;;
24173;SDS011;12324;48.146;11.502;2023-03-31T07:24:10;19.52;;;9.63;;
24173;SDS011;12324;48.146;11.502;2023-03-31T07:26:37;23.63;;;10.20;;
24173;SDS011;12324;48.146;11.502;2023-03-31T07:29:04;20.13;;;9.55;;
24173;SDS011;12324;48.146;11.502;2023-03-31T07:31:31;21.17;;;11.27;;
24173;SDS011;12324;48.146;11.502;2023-03-31T07:33:57;20.10;;;9.77;;
24173;SDS011;12324;48.146;11.502;2023-03-31T07:36:24;21.83;;;10.32;;
24173;SDS011;12324;48.146;11.502;2023-03-31T07:38:51;20.60;;;10.73;;
24173;SDS011;12324;48.146;11.502;2023-03-31T07:41:18;23.90;;;11.30;;
24173;SDS011;12324;48.146;11.502;2023-03-31T07:43:46;21.67;;;11.55;;
24173;SDS011;12324;48.146;11.502;2023-03-31T07:46:17;23.27;;;11.02;;
24173;SDS011;12324;48.146;11.502;2023-03-31T07:48:45;25.90;;;11.32;;
24173;SDS011;12324;48.146;11.502;2023-03-31T07:51:17;20.35;;;11.23;;
24173;SDS011;12324;48.146;11.502;2023-03-31T07:53:45;22.77;;;10.82;;
24173;SDS011;12324;48.146;11.502;2023-03-31T07:56:14;21.55;;;11.10;;
24173;SDS011;12324;48.146;11.502;2023-03-31T07:58:42;23.60;;;11.13;;
24173;SDS011;12324;48.146;11.502;2023-03-31T08:01:11;24.88;;;11.45;;
24173;SDS011;12324;48.146;11.502;2023-03-31T08:03:43;27.50;;;10.95;;
24173;SDS011;12324;48.146;11.502;2023-03-31T08:06:10;19.25;;;10.52;;
24173;SDS011;12324;48.146;11.502;2023-03-31T08:08:37;22.15;;;10.45;;
24173;SDS011;12324;48.146;11.502;2023-03-31T08:11:08;19.70;;;10.73;;
24173;SDS011;12324;48.146;11.502;2023-03-31T08:13:35;18.85;;;10.02;;
24173;SDS011;12324;48.146;11.502;2023-03-31T08:16:02;22.60;;;9.55;;
24173;SDS011;12324;48.146;11.502;2023-03-31T08:18:30;24.20;;;9.95;;
24173;SDS011;12324;48.146;11.502;2023-03-31T08:20:57;19.55;;;9.60;;
24173;SDS011;12324;48.146;11.502;2023-03-31T08:23:24;19.83;;;10.20;;
24173;SDS011;12324;48.146;11.502;2023-03-31T08:25:51;23.42;;;11.18;;
24173;SDS011;12324;48.146;11.502;2023-03-31T08:28:18;20.13;;;9.90;;
24173;SDS011;12324;48.146;11.502;2023-03-31T08:30:45;18.30;;;10.70;;
24173;SDS011;12324;48.146;11.502;2023-03-31T08:33:13;21.08;;;10.70;;
24173;SDS011;12324;48.146;11.502;2023-03-31T08:35:40;22.50;;;11.85;;
24173;SDS011;12324;48.146;11.502;2023-03-31T08:38:07;20.17;;;10.98;;
24173;SDS011;12324;48.146;11.502;2023-03-31T08:40:34;20.20;;;9.60;;
24173;SDS011;12324;48.146;11.502;2023-03-31T08:43:03;18.45;;;8.93;;
24173;SDS011;12324;48.146;11.502;2023-03-31T08:45:33;14.15;;;6.95;;
24173;SDS011;12324;48.146;11.502;2023-03-31T08:48:05;18.40;;;6.53;;
24173;SDS011;12324;48.146;11.502;2023-03-31T08:50:34;16.52;;;6.63;;
24173;SDS011;12324;48.146;11.502;2023-03-31T08:53:05;12.82;;;6.55;;
24173;SDS011;12324;48.146;11.502;2023-03-31T08:55:48;14.00;;;5.38;;
24173;SDS011;12324;48.146;11.502;2023-03-31T08:58:20;12.05;;;5.18;;
24173;SDS011;12324;48.146;11.502;2023-03-31T09:00:58;14.77;;;5.32;;
24173;SDS011;12324;48.146;11.502;2023-03-31T09:05:56;10.20;;;4.45;;
24173;SDS011;12324;48.146;11.502;2023-03-31T09:08:33;13.60;;;4.90;;
24173;SDS011;12324;48.146;11.502;2023-03-31T09:11:08;11.50;;;4.97;;
24173;SDS011;12324;48.146;11.502;2023-03-31T09:16:11;12.40;;;5.00;;
24173;SDS011;12324;48.146;11.502;2023-03-31T09:18:42;12.63;;;5.50;;
24173;SDS011;12324;48.146;11.502;2023-03-31T09:21:24;13.65;;;5.57;;
24173;SDS011;12324;48.146;11.502;2023-03-31T09:26:56;12.50;;;4.85;;
24173;SDS011;12324;48.146;11.502;2023-03-31T09:32:00;10.43;;;4.57;;
24173;SDS011;12324;48.146;11.502;2023-03-31T09:34:29;8.75;;;4.00;;
24173;SDS011;12324;48.146;11.502;2023-03-31T09:36:57;12.70;;;4.00;;
24173;SDS011;12324;48.146;11.502;2023-03-31T09:39:24;13.15;;;3.88;;
24173;SDS011;12324;48.146;11.502;2023-03-31T09:41:51;8.70;;;3.78;;
24173;SDS011;12324;48.146;11.502;2023-03-31T09:46:47;9.40;;;3.30;;
24173;SDS011;12324;48.146;11.502;2023-03-31T09:49:17;10.40;;;3.50;;
24173;SDS011;12324;48.146;11.502;2023-03-31T09:51:46;5.82;;;2.75;;
24173;SDS011;12324;48.146;11.502;2023-03-31T09:54:24;6.03;;;3.05;;
24173;SDS011;12324;48.146;11.502;2023-03-31T09:56:54;6.82;;;3.25;;
24173;SDS011;12324;48.146;11.502;2023-03-31T09:59:31;7.05;;;3.03;;
24173;SDS011;12324;48.146;11.502;2023-03-31T10:01:59;9.00;;;3.17;;
24173;SDS011;12324;48.146;11.502;2023-03-31T10:04:29;6.10;;;3.08;;
24173;SDS011;12324;48.146;11.502;2023-03-31T10:06:58;8.75;;;3.67;;
24173;SDS011;12324;48.146;11.502;2023-03-31T10:09:27;7.25;;;2.90;;
24173;SDS011;12324;48.146;11.502;2023-03-31T10:11:57;7.53;;;2.95;;
24173;SDS011;12324;48.146;11.502;2023-03-31T10:14:25;9.40;;;3.05;;
24173;SDS011;12324;48.146;11.502;2023-03-31T10:16:54;14.20;;;2.92;;
24173;SDS011;12324;48.146;11.502;2023-03-31T10:19:23;7.60;;;3.30;;
24173;SDS011;12324;48.146;11.502;2023-03-31T10:22:00;9.63;;;2.67;;
24173;SDS011;12324;48.146;11.502;2023-03-31T10:24:45;7.78;;;3.47;;
24173;SDS011;12324;48.146;11.502;2023-03-31T10:27:17;5.43;;;2.75;;
24173;SDS011;12324;48.146;11.502;2023-03-31T10:29:45;6.88;;;3.08;;
24173;SDS011;12324;48.146;11.502;2023-03-31T10:32:16;7.90;;;3.35;;
24173;SDS011;12324;48.146;11.502;2023-03-31T10:34:44;7.93;;;3.42;;
24173;SDS011;12324;48.146;11.502;2023-03-31T10:37:17;14.93;;;4.00;;
24173;SDS011;12324;48.146;11.502;2023-03-31T10:39:47;12.52;;;4.18;;
24173;SDS011;12324;48.146;11.502;2023-03-31T10:42:22;9.45;;;3.88;;
24173;SDS011;12324;48.146;11.502;2023-03-31T10:44:51;8.57;;;3.90;;
24173;SDS011;12324;48.146;11.502;2023-03-31T10:47:59;11.13;;;4.60;;
24173;SDS011;12324;48.146;11.502;2023-03-31T10:50:31;13.25;;;4.05;;
24173;SDS011;12324;48.146;11.502;2023-03-31T10:53:00;9.18;;;3.20;;
24173;SDS011;12324;48.146;11.502;2023-03-31T10:55:33;11.57;;;3.83;;
24173;SDS011;12324;48.146;11.502;2023-03-31T10:58:25;9.77;;;4.07;;
24173;SDS011;12324;48.146;11.502;2023-03-31T11:01:36;10.68;;;4.03;;
24173;SDS011;12324;48.146;11.502;2023-03-31T11:13:20;15.77;;;4.60;;
24173;SDS011;12324;48.146;11.502;2023-03-31T11:21:41;13.35;;;4.57;;
24173;SDS011;12324;48.146;11.502;2023-03-31T11:32:28;6.10;;;1.88;;
24173;SDS011;12324;48.146;11.502;2023-03-31T11:35:00;3.08;;;1.67;;
24173;SDS011;12324;48.146;11.502;2023-03-31T11:37:51;4.50;;;2.55;;
24173;SDS011;12324;48.146;11.502;2023-03-31T11:40:27;6.35;;;2.20;;
24173;SDS011;12324;48.146;11.502;2023-03-31T11:45:44;6.20;;;2.20;;
24173;SDS011;12324;48.146;11.502;2023-03-31T11:48:15;7.90;;;2.35;;
24173;SDS011;12324;48.146;11.502;2023-03-31T11:50:43;4.65;;;1.90;;
24173;SDS011;12324;48.146;11.502;2023-03-31T11:53:18;4.70;;;2.10;;
24173;SDS011;12324;48.146;11.502;2023-03-31T11:55:47;6.20;;;1.90;;
24173;SDS011;12324;48.146;11.502;2023-03-31T11:58:19;4.15;;;1.95;;
24173;SDS011;12324;48.146;11.502;2023-03-31T12:00:48;4.18;;;2.17;;
24173;SDS011;12324;48.146;11.502;2023-03-31T12:05:47;7.30;;;2.88;;
24173;SDS011;12324;48.146;11.502;2023-03-31T12:08:22;3.85;;;2.10;;
24173;SDS011;12324;48.146;11.502;2023-03-31T12:10:54;2.93;;;1.73;;
24173;SDS011;12324;48.146;11.502;2023-03-31T12:15:53;6.43;;;2.03;;
24173;SDS011;12324;48.146;11.502;2023-03-31T12:18:27;3.38;;;1.85;;
24173;SDS011;12324;48.146;11.502;2023-03-31T12:20:58;6.68;;;2.25;;
24173;SDS011;12324;48.146;11.502;2023-03-31T12:23:27;8.00;;;2.70;;
24173;SDS011;12324;48.146;11.502;2023-03-31T12:25:58;4.45;;;2.00;;
24173;SDS011;12324;48.146;11.502;2023-03-31T12:28:29;3.78;;;1.80;;
24173;SDS011;12324;48.146;11.502;2023-03-31T12:30:59;6.47;;;1.88;;
24173;SDS011;12324;48.146;11.502;2023-03-31T12:33:28;3.20;;;2.10;;
24173;SDS011;12324;48.146;11.502;2023-03-31T12:36:02;4.55;;;2.03;;
24173;SDS011;12324;48.146;11.502;2023-03-31T12:43:48;5.07;;;1.98;;
24173;SDS011;12324;48.146;11.502;2023-03-31T12:51:36;6.00;;;2.25;;
24173;SDS011;12324;48.146;11.502;2023-03-31T12:54:09;7.13;;;2.30;;
24173;SDS011;12324;48.146;11.502;2023-03-31T12:59:17;8.57;;;2.75;;
24173;SDS011;12324;48.146;11.502;2023-03-31T13:02:10;6.85;;;2.60;;
24173;SDS011;12324;48.146;11.502;2023-03-31T13:04:34;6.53;;;2.50;;
24173;SDS011;12324;48.146;11.502;2023-03-31T13:07:03;4.03;;;1.98;;
24173;SDS011;12324;48.146;11.502;2023-03-31T13:09:47;1.88;;;1.48;;
24173;SDS011;12324;48.146;11.502;2023-03-31T13:12:18;8.27;;;1.85;;
24173;SDS011;12324;48.146;11.502;2023-03-31T13:14:46;4.38;;;2.08;;
24173;SDS011;12324;48.146;11.502;2023-03-31T13:17:35;12.40;;;1.73;;
24173;SDS011;12324;48.146;11.502;2023-03-31T13:22:48;3.15;;;1.23;;
24173;SDS011;12324;48.146;11.502;2023-03-31T13:28:07;4.93;;;1.55;;
24173;SDS011;12324;48.146;11.502;2023-03-31T13:33:03;6.93;;;1.65;;
24173;SDS011;12324;48.146;11.502;2023-03-31T13:35:30;6.20;;;1.80;;
24173;SDS011;12324;48.146;11.502;2023-03-31T13:38:14;3.42;;;1.30;;
24173;SDS011;12324;48.146;11.502;2023-03-31T13:43:29;8.70;;;1.88;;
24173;SDS011;12324;48.146;11.502;2023-03-31T13:46:17;9.88;;;1.65;;
24173;SDS011;12324;48.146;11.502;2023-03-31T13:54:13;3.92;;;1.13;;
24173;SDS011;12324;48.146;11.502;2023-03-31T14:02:16;6.22;;;1.92;;
24173;SDS011;12324;48.146;11.502;2023-03-31T14:07:47;4.40;;;1.23;;
24173;SDS011;12324;48.146;11.502;2023-03-31T14:10:32;3.67;;;1.30;;
24173;SDS011;12324;48.146;11.502;2023-03-31T14:13:14;4.45;;;1.38;;
24173;SDS011;12324;48.146;11.502;2023-03-31T14:15:48;3.85;;;1.17;;
24173;SDS011;12324;48.146;11.502;2023-03-31T14:18:22;7.38;;;1.58;;
24173;SDS011;12324;48.146;11.502;2023-03-31T14:28:33;3.72;;;1.63;;
24173;SDS011;12324;48.146;11.502;2023-03-31T14:31:09;8.18;;;1.98;;
24173;SDS011;12324;48.146;11.502;2023-03-31T14:33:45;6.22;;;2.38;;
24173;SDS011;12324;48.146;11.502;2023-03-31T14:39:11;4.75;;;1.65;;
24173;SDS011;12324;48.146;11.502;2023-03-31T14:41:41;6.05;;;1.90;;
24173;SDS011;12324;48.146;11.502;2023-03-31T14:44:12;2.63;;;1.33;;
24173;SDS011;12324;48.146;11.502;2023-03-31T14:46:41;3.85;;;1.63;;
24173;SDS011;12324;48.146;11.502;2023-03-31T14:51:42;3.45;;;1.38;;
24173;SDS011;12324;48.146;11.502;2023-03-31T14:54:16;3.33;;;1.40;;
24173;SDS011;12324;48.146;11.502;2023-03-31T14:56:54;2.72;;;1.23;;
24173;SDS011;12324;48.146;11.502;2023-03-31T14:59:23;1.40;;;0.93;;
24173;SDS011;12324;48.146;11.502;2023-03-31T15:01:52;3.13;;;1.27;;
24173;SDS011;12324;48.146;11.502;2023-03-31T15:04:21;5.25;;;1.50;;
24173;SDS011;12324;48.146;11.502;2023-03-31T15:09:32;7.70;;;1.80;;
24173;SDS011;12324;48.146;11.502;2023-03-31T15:12:02;3.55;;;1.40;;
24173;SDS011;12324;48.146;11.502;2023-03-31T15:14:31;1.90;;;1.25;;
24173;SDS011;12324;48.146;11.502;2023-03-31T15:16:59;3.10;;;1.20;;
24173;SDS011;12324;48.146;11.502;2023-03-31T15:19:31;2.72;;;1.40;;
24173;SDS011;12324;48.146;11.502;2023-03-31T15:22:01;2.63;;;1.25;;
24173;SDS011;12324;48.146;11.502;2023-03-31T15:24:29;4.00;;;1.52;;
24173;SDS011;12324;48.146;11.502;2023-03-31T15:27:07;1.85;;;1.30;;
24173;SDS011;12324;48.146;11.502;2023-03-31T15:29:49;3.42;;;1.38;;
24173;SDS011;12324;48.146;11.502;2023-03-31T15:32:24;4.57;;;1.38;;
24173;SDS011;12324;48.146;11.502;2023-03-31T15:34:53;4.18;;;1.40;;
24173;SDS011;12324;48.146;11.502;2023-03-31T15:37:26;7.28;;;1.80;;
24173;SDS011;12324;48.146;11.502;2023-03-31T15:39:54;4.78;;;1.67;;
24173;SDS011;12324;48.146;11.502;2023-03-31T15:42:23;6.20;;;1.70;;
24173;SDS011;12324;48.146;11.502;2023-03-31T15:47:23;6.30;;;1.60;;
24173;SDS011;12324;48.146;11.502;2023-03-31T15:49:57;2.45;;;1.40;;
24173;SDS011;12324;48.146;11.502;2023-03-31T15:52:38;5.22;;;1.63;;
24173;SDS011;12324;48.146;11.502;2023-03-31T15:55:23;4.82;;;1.45;;
24173;SDS011;12324;48.146;11.502;2023-03-31T15:57:58;4.93;;;1.65;;
24173;SDS011;12324;48.146;11.502;2023-03-31T16:03:02;7.82;;;1.85;;
24173;SDS011;12324;48.146;11.502;2023-03-31T16:05:41;5.13;;;1.65;;
24173;SDS011;12324;48.146;11.502;2023-03-31T16:08:27;4.75;;;1.35;;
24173;SDS011;12324;48.146;11.502;2023-03-31T16:11:18;3.63;;;2.00;;
24173;SDS011;12324;48.146;11.502;2023-03-31T16:13:54;6.40;;;1.50;;
24173;SDS011;12324;48.146;11.502;2023-03-31T16:16:24;6.88;;;1.77;;
24173;SDS011;12324;48.146;11.502;2023-03-31T16:18:54;3.65;;;1.20;;
24173;SDS011;12324;48.146;11.502;2023-03-31T16:21:37;6.38;;;1.98;;
24173;SDS011;12324;48.146;11.502;2023-03-31T16:24:07;6.07;;;1.73;;
24173;SDS011;12324;48.146;11.502;2023-03-31T16:26:34;5.28;;;1.77;;
24173;SDS011;12324;48.146;11.502;2023-03-31T16:29:02;7.03;;;2.25;;
24173;SDS011;12324;48.146;11.502;2023-03-31T16:31:32;5.53;;;1.85;;
24173;SDS011;12324;48.146;11.502;2023-03-31T16:34:02;7.20;;;2.38;;
24173;SDS011;12324;48.146;11.502;2023-03-31T16:36:30;6.57;;;2.30;;
24173;SDS011;12324;48.146;11.502;2023-03-31T16:38:57;5.88;;;2.30;;
24173;SDS011;12324;48.146;11.502;2023-03-31T16:41:27;10.00;;;2.50;;
24173;SDS011;12324;48.146;11.502;2023-03-31T16:43:54;6.72;;;2.10;;
24173;SDS011;12324;48.146;11.502;2023-03-31T16:46:21;5.50;;;2.55;;
24173;SDS011;12324;48.146;11.502;2023-03-31T16:48:49;5.53;;;2.03;;
24173;SDS011;12324;48.146;11.502;2023-03-31T16:51:16;5.57;;;2.17;;
24173;SDS011;12324;48.146;11.502;2023-03-31T16:53:44;9.35;;;2.80;;
24173;SDS011;12324;48.146;11.502;2023-03-31T16:56:12;3.60;;;1.30;;
24173;SDS011;12324;48.146;11.502;2023-03-31T16:58:39;4.35;;;1.10;;
24173;SDS011;12324;48.146;11.502;2023-03-31T17:01:07;1.08;;;0.80;;
24173;SDS011;12324;48.146;11.502;2023-03-31T17:03:35;3.92;;;0.90;;
24173;SDS011;12324;48.146;11.502;2023-03-31T17:06:07;3.65;;;1.33;;
24173;SDS011;12324;48.146;11.502;2023-03-31T17:08:35;8.50;;;1.33;;
24173;SDS011;12324;48.146;11.502;2023-03-31T17:11:04;3.03;;;1.10;;
24173;SDS011;12324;48.146;11.502;2023-03-31T17:13:38;7.43;;;1.50;;